createdAt,value
2019-03-19T04:01:00.717Z,13.73
2019-03-19T04:03:29.416Z,16.17
2019-03-19T04:05:58.011Z,13.67
2019-03-19T04:08:26.553Z,14.23
2019-03-19T04:10:55.507Z,16.47
2019-03-19T04:13:24.063Z,16.00
2019-03-19T04:15:52.680Z,15.30
2019-03-19T04:18:21.556Z,16.17
2019-03-19T04:20:50.128Z,14.77
2019-03-19T04:23:18.716Z,15.23
2019-03-19T04:25:47.587Z,14.87
2019-03-19T04:28:16.270Z,16.37
2019-03-19T04:30:44.847Z,14.10
2019-03-19T04:33:13.433Z,17.20
2019-03-19T04:35:42.457Z,14.27
2019-03-19T04:38:11.212Z,16.03
2019-03-19T04:40:39.851Z,15.57
2019-03-19T04:43:08.686Z,15.77
2019-03-19T04:45:37.255Z,15.40
2019-03-19T04:48:05.851Z,18.70
2019-03-19T04:50:34.415Z,17.00
2019-03-19T04:53:03.006Z,17.10
2019-03-19T04:55:31.820Z,16.23
2019-03-19T04:58:00.374Z,18.87
2019-03-19T05:00:28.964Z,17.27
2019-03-19T05:02:57.888Z,19.60
2019-03-19T05:05:26.559Z,20.73
2019-03-19T05:07:55.764Z,21.30
2019-03-19T05:10:24.322Z,21.87
2019-03-19T05:12:52.907Z,22.30
2019-03-19T05:15:21.471Z,19.33
2019-03-19T05:17:50.091Z,21.30
2019-03-19T05:20:18.695Z,24.70
2019-03-19T05:22:47.291Z,21.97
2019-03-19T05:25:16.001Z,26.47
2019-03-19T05:27:44.548Z,24.17
2019-03-19T05:30:13.139Z,26.23
2019-03-19T05:32:41.779Z,28.70
2019-03-19T05:35:10.387Z,27.47
2019-03-19T05:37:39.291Z,24.73
2019-03-19T05:40:13.286Z,26.53
2019-03-19T05:42:41.867Z,24.27
2019-03-19T05:45:10.884Z,25.00
2019-03-19T05:47:40.668Z,25.93
2019-03-19T05:50:10.445Z,26.23
2019-03-19T05:52:39.119Z,23.30
2019-03-19T05:55:08.077Z,27.17
2019-03-19T05:57:48.430Z,24.97
2019-03-19T06:00:08.099Z,25.37
2019-03-19T06:02:36.683Z,24.60
2019-03-19T06:05:05.922Z,26.00
2019-03-19T06:07:34.514Z,22.57
2019-03-19T06:10:03.279Z,21.53
2019-03-19T06:12:31.840Z,23.20
2019-03-19T06:15:00.730Z,23.10
2019-03-19T06:17:29.320Z,23.43
2019-03-19T06:19:58.175Z,22.17
2019-03-19T06:22:26.747Z,24.17
2019-03-19T06:24:55.310Z,25.90
2019-03-19T06:27:23.900Z,20.27
2019-03-19T06:29:52.518Z,22.57
2019-03-19T06:32:21.239Z,21.20
2019-03-19T06:34:49.803Z,21.80
2019-03-19T06:37:18.643Z,20.67
2019-03-19T06:39:47.226Z,21.10
2019-03-19T06:42:15.791Z,20.63
2019-03-19T06:44:44.379Z,20.20
2019-03-19T06:47:13.288Z,20.97
2019-03-19T06:49:41.847Z,20.17
2019-03-19T06:52:10.427Z,24.73
2019-03-19T06:54:38.994Z,22.00
2019-03-19T06:57:07.578Z,22.27
2019-03-19T06:59:36.419Z,27.53
2019-03-19T07:02:05.003Z,22.17
2019-03-19T07:04:33.606Z,22.67
2019-03-19T07:07:02.183Z,20.47
2019-03-19T07:09:30.774Z,21.70
2019-03-19T07:12:01.454Z,21.90
2019-03-19T07:14:29.618Z,19.17
2019-03-19T07:16:58.211Z,21.17
2019-03-19T07:19:26.833Z,18.10
2019-03-19T07:21:55.735Z,22.00
2019-03-19T07:24:24.293Z,19.00
2019-03-19T07:26:52.858Z,16.47
2019-03-19T07:29:21.447Z,19.77
2019-03-19T07:31:50.368Z,16.53
2019-03-19T07:34:18.955Z,19.53
2019-03-19T07:36:47.524Z,19.70
2019-03-19T07:39:16.106Z,18.53
2019-03-19T07:41:44.695Z,14.67
2019-03-19T07:44:13.254Z,15.33
2019-03-19T07:46:41.922Z,13.03
2019-03-19T07:49:10.487Z,12.73
2019-03-19T07:51:39.048Z,11.23
2019-03-19T07:54:07.675Z,10.60
2019-03-19T07:56:36.246Z,11.63
2019-03-19T07:59:04.851Z,10.87
2019-03-19T08:01:33.415Z,10.93
2019-03-19T08:04:02.003Z,11.47
2019-03-19T08:06:32.682Z,10.87
2019-03-19T08:09:00.953Z,8.50
2019-03-19T08:11:29.555Z,10.23
2019-03-19T08:13:58.122Z,9.47
2019-03-19T08:16:27.810Z,7.53
2019-03-19T08:18:56.451Z,9.03
2019-03-19T08:21:25.054Z,12.47
2019-03-19T08:23:53.642Z,9.20
2019-03-19T08:26:22.553Z,8.67
2019-03-19T08:28:55.290Z,9.10
2019-03-19T08:31:21.422Z,9.97
2019-03-19T08:33:50.078Z,9.50
2019-03-19T08:36:18.654Z,8.63
2019-03-19T08:38:47.214Z,8.50
2019-03-19T08:41:15.778Z,8.97
2019-03-19T08:43:44.363Z,9.77
2019-03-19T08:46:13.262Z,9.53
2019-03-19T08:48:41.882Z,8.90
2019-03-19T08:51:10.474Z,9.37
2019-03-19T08:53:39.049Z,9.20
2019-03-19T08:56:07.619Z,10.30
2019-03-19T08:58:36.482Z,9.30
2019-03-19T09:01:05.082Z,9.73
2019-03-19T09:03:33.643Z,11.00
2019-03-19T09:06:02.544Z,8.17
2019-03-19T09:08:31.127Z,10.07
2019-03-19T09:10:59.694Z,8.60
2019-03-19T09:13:28.278Z,9.70
2019-03-19T09:15:56.843Z,8.68
2019-03-19T09:18:25.439Z,7.92
2019-03-19T09:20:54.157Z,8.65
2019-03-19T09:23:22.813Z,8.25
2019-03-19T09:25:51.394Z,5.80
2019-03-19T09:28:20.007Z,9.35
2019-03-19T09:30:48.586Z,7.15
2019-03-19T09:33:17.147Z,10.78
2019-03-19T09:35:45.710Z,8.05
2019-03-19T09:38:14.362Z,8.28
2019-03-19T09:40:43.223Z,7.72
2019-03-19T09:43:11.815Z,5.70
2019-03-19T09:45:40.366Z,7.55
2019-03-19T09:48:08.931Z,6.35
2019-03-19T09:50:37.520Z,9.50
2019-03-19T09:53:06.167Z,6.90
2019-03-19T09:55:34.879Z,10.93
2019-03-19T09:58:03.443Z,6.75
2019-03-19T10:00:32.002Z,7.92
2019-03-19T10:03:00.897Z,7.30
2019-03-19T10:05:29.474Z,6.85
2019-03-19T10:07:58.051Z,9.75
2019-03-19T10:10:26.637Z,7.53
2019-03-19T10:12:55.218Z,11.33
2019-03-19T10:15:23.816Z,8.15
2019-03-19T10:17:52.379Z,8.55
2019-03-19T10:20:20.980Z,8.00
2019-03-19T10:22:49.541Z,7.12
2019-03-19T10:25:18.146Z,7.78
2019-03-19T10:27:46.844Z,6.37
2019-03-19T10:30:16.886Z,6.53
2019-03-19T10:32:45.466Z,7.58
2019-03-19T10:35:14.053Z,7.12
2019-03-19T10:37:42.618Z,5.80
2019-03-19T10:40:11.202Z,8.30
2019-03-19T10:42:39.816Z,8.53
2019-03-19T10:45:09.194Z,7.57
2019-03-19T10:47:37.756Z,10.13
2019-03-19T10:50:08.962Z,8.40
2019-03-19T10:52:37.531Z,10.20
2019-03-19T10:55:06.173Z,4.97
2019-03-19T10:57:34.739Z,6.00
2019-03-19T11:00:10.994Z,8.03
2019-03-19T11:02:39.582Z,9.97
2019-03-19T11:05:09.543Z,6.67
2019-03-19T11:07:38.142Z,4.77
2019-03-19T11:10:06.757Z,7.67
2019-03-19T11:12:35.937Z,7.73
2019-03-19T11:15:05.445Z,5.60
2019-03-19T11:17:33.994Z,5.93
2019-03-19T11:20:02.939Z,7.23
2019-03-19T11:22:33.415Z,8.10
2019-03-19T11:25:02.150Z,5.27
2019-03-19T11:27:30.765Z,11.30
2019-03-19T11:30:00.174Z,13.10
2019-03-19T11:32:29.535Z,12.53
2019-03-19T11:34:58.119Z,10.27
2019-03-19T11:37:26.677Z,7.00
2019-03-19T11:39:55.249Z,7.80
2019-03-19T11:42:23.816Z,6.57
2019-03-19T11:44:52.373Z,9.87
2019-03-19T11:47:20.990Z,8.93
2019-03-19T11:49:49.567Z,10.60
2019-03-19T11:52:18.164Z,6.73
2019-03-19T11:54:46.726Z,7.93
2019-03-19T11:57:15.291Z,10.70
2019-03-19T11:59:43.866Z,7.30
2019-03-19T12:02:12.426Z,7.50
2019-03-19T12:04:41.006Z,9.37
2019-03-19T12:07:09.566Z,10.23
2019-03-19T12:09:40.044Z,6.37
2019-03-19T12:12:08.446Z,8.07
2019-03-19T12:14:37.358Z,9.77
2019-03-19T12:17:05.942Z,5.73
2019-03-19T12:19:34.502Z,8.57
2019-03-19T12:22:03.086Z,8.97
2019-03-19T12:24:32.733Z,9.60
2019-03-19T12:27:01.530Z,8.00
2019-03-19T12:29:30.110Z,6.90
2019-03-19T12:31:58.679Z,5.70
2019-03-19T12:34:27.274Z,6.57
2019-03-19T12:36:55.870Z,7.10
2019-03-19T12:39:24.466Z,5.63
2019-03-19T12:41:53.054Z,5.10
2019-03-19T12:44:21.890Z,5.67
2019-03-19T12:46:50.514Z,6.20
2019-03-19T12:49:19.077Z,5.43
2019-03-19T12:51:47.645Z,9.10
2019-03-19T12:54:37.813Z,4.90
2019-03-19T12:57:05.814Z,6.50
2019-03-19T12:59:34.398Z,7.37
2019-03-19T13:02:02.995Z,4.97
2019-03-19T13:04:31.647Z,4.87
2019-03-19T13:07:00.231Z,9.60
2019-03-19T13:09:28.794Z,5.50
2019-03-19T13:11:57.379Z,6.87
2019-03-19T13:14:25.949Z,5.83
2019-03-19T13:16:54.523Z,7.93
2019-03-19T13:19:23.102Z,6.60
2019-03-19T13:21:51.662Z,5.67
2019-03-19T13:24:20.250Z,8.23
2019-03-19T13:26:48.852Z,7.43
2019-03-19T13:29:17.416Z,9.93
2019-03-19T13:31:46.015Z,8.10
2019-03-19T13:34:14.583Z,5.73
2019-03-19T13:36:43.474Z,8.53
2019-03-19T13:39:12.047Z,4.17
2019-03-19T13:41:40.607Z,4.07
2019-03-19T13:44:11.270Z,3.73
2019-03-19T13:46:39.495Z,5.73
2019-03-19T13:49:08.078Z,6.73
2019-03-19T13:51:36.648Z,7.13
2019-03-19T13:54:05.299Z,5.80
2019-03-19T13:56:33.883Z,6.63
2019-03-19T13:59:02.459Z,6.50
2019-03-19T14:01:31.156Z,5.87
2019-03-19T14:03:59.718Z,5.57
2019-03-19T14:06:28.608Z,6.87
2019-03-19T14:08:57.178Z,4.53
2019-03-19T14:11:25.741Z,6.13
2019-03-19T14:13:55.754Z,7.87
2019-03-19T14:16:24.571Z,7.73
2019-03-19T14:18:53.375Z,6.27
2019-03-19T14:21:21.959Z,6.00
2019-03-19T14:23:50.521Z,5.83
2019-03-19T14:26:19.102Z,6.10
2019-03-19T14:28:48.027Z,5.43
2019-03-19T14:31:16.686Z,9.83
2019-03-19T14:33:45.647Z,5.53
2019-03-19T14:36:14.211Z,6.07
2019-03-19T14:38:47.045Z,4.53
2019-03-19T14:41:13.170Z,6.93
2019-03-19T14:43:42.067Z,5.60
2019-03-19T14:46:10.674Z,6.57
2019-03-19T14:48:39.258Z,5.80
2019-03-19T14:51:07.860Z,7.37
2019-03-19T14:53:36.422Z,8.10
2019-03-19T14:56:05.159Z,8.87
2019-03-19T14:58:33.744Z,5.93
2019-03-19T15:01:02.307Z,7.27
2019-03-19T15:03:30.914Z,2.73
2019-03-19T15:05:59.504Z,5.63
2019-03-19T15:08:28.410Z,6.83
2019-03-19T15:10:56.999Z,5.43
2019-03-19T15:13:26.118Z,4.67
2019-03-19T15:15:54.715Z,5.07
2019-03-19T15:18:23.634Z,5.27
2019-03-19T15:20:53.119Z,6.90
2019-03-19T15:23:21.885Z,6.20
2019-03-19T15:25:50.549Z,6.07
2019-03-19T15:28:19.567Z,6.17
2019-03-19T15:30:48.166Z,4.40
2019-03-19T15:33:16.738Z,6.93
2019-03-19T15:35:45.624Z,6.03
2019-03-19T15:38:14.269Z,7.63
2019-03-19T15:40:42.911Z,6.40
2019-03-19T15:43:11.839Z,9.87
2019-03-19T15:45:40.674Z,7.17
2019-03-19T15:48:09.440Z,7.70
2019-03-19T15:50:38.015Z,6.70
2019-03-19T15:53:06.618Z,5.97
2019-03-19T15:55:35.237Z,10.13
2019-03-19T15:58:03.863Z,7.37
2019-03-19T16:00:32.519Z,6.27
2019-03-19T16:03:01.082Z,7.67
2019-03-19T16:05:29.658Z,6.33
2019-03-19T16:07:58.218Z,5.10
2019-03-19T16:10:26.777Z,5.20
2019-03-19T16:12:55.692Z,4.33
2019-03-19T16:15:24.374Z,10.30
2019-03-19T16:17:52.953Z,9.97
2019-03-19T16:20:21.515Z,6.73
2019-03-19T16:22:50.082Z,9.47
2019-03-19T16:25:18.666Z,5.90
2019-03-19T16:27:47.288Z,5.63
2019-03-19T16:30:15.938Z,4.60
2019-03-19T16:32:44.549Z,7.53
2019-03-19T16:35:13.113Z,8.43
2019-03-19T16:37:41.702Z,5.60
2019-03-19T16:40:13.083Z,5.00
2019-03-19T16:42:41.935Z,6.47
2019-03-19T16:45:10.537Z,10.97
2019-03-19T16:47:39.171Z,8.07
2019-03-19T16:50:08.867Z,6.47
2019-03-19T16:52:37.424Z,7.10
2019-03-19T16:55:06.144Z,5.30
2019-03-19T16:57:34.751Z,9.40
2019-03-19T17:00:03.375Z,5.23
2019-03-19T17:02:31.997Z,6.23
2019-03-19T17:05:00.598Z,5.47
2019-03-19T17:07:29.234Z,5.77
2019-03-19T17:09:57.797Z,7.10
2019-03-19T17:12:26.358Z,5.37
2019-03-19T17:14:55.250Z,9.53
2019-03-19T17:17:23.882Z,7.47
2019-03-19T17:19:52.458Z,8.77
2019-03-19T17:22:21.014Z,5.37
2019-03-19T17:24:49.590Z,4.17
2019-03-19T17:27:18.196Z,5.67
2019-03-19T17:29:46.746Z,4.80
2019-03-19T17:32:15.338Z,6.37
2019-03-19T17:34:44.020Z,7.83
2019-03-19T17:37:12.579Z,5.50
2019-03-19T17:39:43.263Z,4.03
2019-03-19T17:42:11.859Z,9.17
2019-03-19T17:44:40.493Z,5.13
2019-03-19T17:47:09.161Z,5.57
2019-03-19T17:49:37.966Z,7.47
2019-03-19T17:52:06.578Z,6.40
2019-03-19T17:54:35.134Z,5.27
2019-03-19T17:57:03.690Z,7.87
2019-03-19T17:59:32.303Z,7.47
2019-03-19T18:02:01.189Z,8.57
2019-03-19T18:04:29.822Z,7.63
2019-03-19T18:06:58.379Z,5.57
2019-03-19T18:09:26.938Z,9.40
2019-03-19T18:11:55.547Z,9.10
2019-03-19T18:14:24.252Z,11.67
2019-03-19T18:16:52.854Z,16.60
2019-03-19T18:19:21.451Z,24.40
2019-03-19T18:21:50.359Z,26.60
2019-03-19T18:24:18.911Z,21.63
2019-03-19T18:26:47.850Z,17.13
2019-03-19T18:29:16.718Z,15.63
2019-03-19T18:31:45.297Z,7.43
2019-03-19T18:34:13.899Z,7.63
2019-03-19T18:36:42.490Z,12.73
2019-03-19T18:39:11.046Z,6.97
2019-03-19T18:41:39.629Z,6.30
2019-03-19T18:44:08.209Z,6.40
2019-03-19T18:46:36.762Z,8.43
2019-03-19T18:49:05.346Z,7.93
2019-03-19T18:51:33.915Z,6.97
2019-03-19T18:54:02.469Z,8.90
2019-03-19T18:56:31.055Z,8.77
2019-03-19T18:58:59.868Z,7.10
2019-03-19T19:01:28.506Z,7.70
2019-03-19T19:03:57.114Z,10.73
2019-03-19T19:06:25.917Z,10.57
2019-03-19T19:08:54.591Z,8.70
2019-03-19T19:11:23.183Z,7.17
2019-03-19T19:13:51.978Z,8.07
2019-03-19T19:16:20.660Z,11.87
2019-03-19T19:18:49.533Z,9.33
2019-03-19T19:21:18.874Z,7.40
2019-03-19T19:23:48.184Z,15.13
2019-03-19T19:26:17.374Z,10.73
2019-03-19T19:28:47.347Z,9.93
2019-03-19T19:31:16.017Z,15.47
2019-03-19T19:33:44.643Z,14.40
2019-03-19T19:36:13.289Z,21.97
2019-03-19T19:38:41.925Z,27.50
2019-03-19T19:41:10.794Z,27.93
2019-03-19T19:43:39.466Z,26.47
2019-03-19T19:46:08.136Z,24.13
2019-03-19T19:48:37.024Z,35.30
2019-03-19T19:51:05.605Z,17.70
2019-03-19T19:53:34.175Z,21.23
2019-03-19T19:56:02.899Z,21.83
2019-03-19T19:58:31.506Z,19.63
2019-03-19T20:01:00.171Z,20.80
2019-03-19T20:03:28.858Z,22.10
2019-03-19T20:05:57.428Z,20.63
2019-03-19T20:08:26.010Z,19.43
2019-03-19T20:10:54.711Z,23.33
2019-03-19T20:13:42.591Z,16.80
2019-03-19T20:16:11.187Z,16.20
2019-03-19T20:18:39.823Z,19.20
2019-03-19T20:21:08.466Z,15.63
2019-03-19T20:23:37.050Z,18.13
2019-03-19T20:26:05.618Z,17.30
2019-03-19T20:28:34.228Z,18.03
2019-03-19T20:31:02.805Z,16.80
2019-03-19T20:33:31.682Z,17.47
2019-03-19T20:36:00.243Z,19.83
2019-03-19T20:38:29.169Z,16.57
2019-03-19T20:40:57.746Z,19.93
2019-03-19T20:43:26.645Z,25.70
2019-03-19T20:45:55.520Z,18.00
2019-03-19T20:48:24.365Z,31.07
2019-03-19T20:50:53.658Z,24.27
2019-03-19T20:53:22.326Z,20.70
2019-03-19T20:55:51.174Z,17.27
2019-03-19T20:58:19.734Z,15.97
2019-03-19T21:00:48.323Z,18.70
2019-03-19T21:03:16.886Z,13.30
2019-03-19T21:05:45.454Z,15.57
2019-03-19T21:08:14.040Z,15.50
2019-03-19T21:10:42.598Z,12.67
2019-03-19T21:13:11.160Z,11.17
2019-03-19T21:15:39.738Z,15.50
2019-03-19T21:18:08.335Z,13.73
2019-03-19T21:20:36.895Z,12.57
2019-03-19T21:23:05.545Z,14.90
2019-03-19T21:25:34.129Z,11.83
2019-03-19T21:28:13.192Z,14.37
2019-03-19T21:30:32.999Z,14.97
2019-03-19T21:33:01.559Z,11.47
2019-03-19T21:35:30.195Z,14.07
2019-03-19T21:37:58.778Z,24.87
2019-03-19T21:40:27.347Z,16.13
2019-03-19T21:42:55.928Z,15.50
2019-03-19T21:45:24.535Z,28.53
2019-03-19T21:47:53.103Z,20.80
2019-03-19T21:50:21.662Z,20.17
2019-03-19T21:52:50.363Z,24.13
2019-03-19T21:55:18.914Z,19.83
2019-03-19T21:57:47.499Z,16.00
2019-03-19T22:00:16.783Z,19.73
2019-03-19T22:02:45.349Z,20.70
2019-03-19T22:05:13.909Z,21.13
2019-03-19T22:07:42.507Z,19.30
2019-03-19T22:10:12.302Z,20.90
2019-03-19T22:12:40.905Z,19.30
2019-03-19T22:15:13.498Z,17.10
2019-03-19T22:17:42.062Z,20.23
2019-03-19T22:20:10.643Z,19.27
2019-03-19T22:22:39.223Z,15.70
2019-03-19T22:25:09.122Z,18.60
2019-03-19T22:27:37.758Z,14.67
2019-03-19T22:30:07.649Z,16.33
2019-03-19T22:32:36.206Z,16.03
2019-03-19T22:35:05.201Z,16.07
2019-03-19T22:37:33.777Z,17.83
2019-03-19T22:40:02.341Z,18.23
2019-03-19T22:42:30.923Z,17.43
2019-03-19T22:44:59.554Z,15.63
2019-03-19T22:47:28.180Z,16.30
2019-03-19T22:49:57.055Z,15.13
2019-03-19T22:52:25.630Z,13.70
2019-03-19T22:54:54.524Z,19.60
2019-03-19T22:57:23.462Z,14.30
2019-03-19T22:59:52.159Z,13.63
